sensor_id;sensor_type;location;lat;lon;timestamp;temperature;humidity
51765;DHT22;37835;53.256;6.456;2023-03-20T00:00:48;7.10;99.90
51765;DHT22;37835;53.256;6.456;2023-03-20T00:03:14;7.10;99.90
51765;DHT22;37835;53.256;6.456;2023-03-20T00:05:40;7.10;99.90
51765;DHT22;37835;53.256;6.456;2023-03-20T00:08:06;7.10;99.90
51765;DHT22;37835;53.256;6.456;2023-03-20T00:10:39;7.10;99.90
51765;DHT22;37835;53.256;6.456;2023-03-20T00:13:07;6.90;99.90
51765;DHT22;37835;53.256;6.456;2023-03-20T00:15:38;7.10;99.90
51765;DHT22;37835;53.256;6.456;2023-03-20T00:18:18;7.10;99.90
51765;DHT22;37835;53.256;6.456;2023-03-20T00:20:48;7.10;99.90
51765;DHT22;37835;53.256;6.456;2023-03-20T00:23:14;7.10;99.90
51765;DHT22;37835;53.256;6.456;2023-03-20T00:25:41;7.10;99.90
51765;DHT22;37835;53.256;6.456;2023-03-20T00:28:46;7.00;99.90
51765;DHT22;37835;53.256;6.456;2023-03-20T00:33:53;6.90;99.90
51765;DHT22;37835;53.256;6.456;2023-03-20T00:36:19;7.00;99.90
51765;DHT22;37835;53.256;6.456;2023-03-20T00:38:45;6.90;99.90
51765;DHT22;37835;53.256;6.456;2023-03-20T00:41:32;6.90;99.90
51765;DHT22;37835;53.256;6.456;2023-03-20T00:46:41;6.90;99.90
51765;DHT22;37835;53.256;6.456;2023-03-20T00:49:09;6.90;99.90
51765;DHT22;37835;53.256;6.456;2023-03-20T00:51:35;6.90;99.90
51765;DHT22;37835;53.256;6.456;2023-03-20T00:54:08;6.90;99.90
51765;DHT22;37835;53.256;6.456;2023-03-20T00:56:41;6.90;99.90
51765;DHT22;37835;53.256;6.456;2023-03-20T00:59:13;6.90;99.90
51765;DHT22;37835;53.256;6.456;2023-03-20T01:01:40;6.80;99.90
51765;DHT22;37835;53.256;6.456;2023-03-20T01:04:15;6.90;99.90
51765;DHT22;37835;53.256;6.456;2023-03-20T01:06:42;6.90;99.90
51765;DHT22;37835;53.256;6.456;2023-03-20T01:09:08;6.90;99.90
51765;DHT22;37835;53.256;6.456;2023-03-20T01:11:34;6.80;99.90
51765;DHT22;37835;53.256;6.456;2023-03-20T01:14:00;6.90;99.90
51765;DHT22;37835;53.256;6.456;2023-03-20T01:16:26;6.90;99.90
51765;DHT22;37835;53.256;6.456;2023-03-20T01:18:52;6.80;99.90
51765;DHT22;37835;53.256;6.456;2023-03-20T01:21:19;6.90;99.90
51765;DHT22;37835;53.256;6.456;2023-03-20T01:23:45;6.80;99.90
51765;DHT22;37835;53.256;6.456;2023-03-20T01:28:56;6.90;99.90
51765;DHT22;37835;53.256;6.456;2023-03-20T01:31:22;6.90;99.90
51765;DHT22;37835;53.256;6.456;2023-03-20T01:33:48;6.90;99.90
51765;DHT22;37835;53.256;6.456;2023-03-20T01:36:15;6.90;99.90
51765;DHT22;37835;53.256;6.456;2023-03-20T01:38:42;6.80;99.90
51765;DHT22;37835;53.256;6.456;2023-03-20T01:41:16;6.80;99.90
51765;DHT22;37835;53.256;6.456;2023-03-20T01:43:43;6.90;99.90
51765;DHT22;37835;53.256;6.456;2023-03-20T01:46:23;6.80;99.90
51765;DHT22;37835;53.256;6.456;2023-03-20T01:51:31;6.80;99.90
51765;DHT22;37835;53.256;6.456;2023-03-20T01:54:23;6.80;99.90
51765;DHT22;37835;53.256;6.456;2023-03-20T01:56:59;6.90;99.90
51765;DHT22;37835;53.256;6.456;2023-03-20T01:59:28;6.70;99.90
51765;DHT22;37835;53.256;6.456;2023-03-20T02:01:56;6.80;99.90
51765;DHT22;37835;53.256;6.456;2023-03-20T02:04:26;6.80;99.90
51765;DHT22;37835;53.256;6.456;2023-03-20T02:06:53;6.70;99.90
51765;DHT22;37835;53.256;6.456;2023-03-20T02:09:19;6.90;99.90
51765;DHT22;37835;53.256;6.456;2023-03-20T02:11:45;6.80;99.90
51765;DHT22;37835;53.256;6.456;2023-03-20T02:14:12;6.90;99.90
51765;DHT22;37835;53.256;6.456;2023-03-20T02:16:38;6.90;99.90
51765;DHT22;37835;53.256;6.456;2023-03-20T02:19:05;6.90;99.90
51765;DHT22;37835;53.256;6.456;2023-03-20T02:24:41;6.90;99.90
51765;DHT22;37835;53.256;6.456;2023-03-20T02:33:07;6.90;99.90
51765;DHT22;37835;53.256;6.456;2023-03-20T02:41:29;6.80;99.90
51765;DHT22;37835;53.256;6.456;2023-03-20T02:44:23;7.00;99.90
51765;DHT22;37835;53.256;6.456;2023-03-20T02:52:37;7.00;99.90
51765;DHT22;37835;53.256;6.456;2023-03-20T02:58:20;7.00;99.90
51765;DHT22;37835;53.256;6.456;2023-03-20T03:00:56;7.00;99.90
51765;DHT22;37835;53.256;6.456;2023-03-20T03:03:32;7.00;99.90
51765;DHT22;37835;53.256;6.456;2023-03-20T03:06:14;7.00;99.90
51765;DHT22;37835;53.256;6.456;2023-03-20T03:08:46;7.10;99.90
51765;DHT22;37835;53.256;6.456;2023-03-20T03:11:12;6.80;99.90
51765;DHT22;37835;53.256;6.456;2023-03-20T03:13:41;7.10;99.90
51765;DHT22;37835;53.256;6.456;2023-03-20T03:16:13;7.00;99.90
51765;DHT22;37835;53.256;6.456;2023-03-20T03:18:41;7.00;99.90
51765;DHT22;37835;53.256;6.456;2023-03-20T03:21:09;7.10;99.90
51765;DHT22;37835;53.256;6.456;2023-03-20T03:23:45;7.00;99.90
51765;DHT22;37835;53.256;6.456;2023-03-20T03:26:21;7.10;99.90
51765;DHT22;37835;53.256;6.456;2023-03-20T03:28:53;7.20;99.90
51765;DHT22;37835;53.256;6.456;2023-03-20T03:31:21;6.90;99.90
51765;DHT22;37835;53.256;6.456;2023-03-20T03:33:51;7.10;99.90
51765;DHT22;37835;53.256;6.456;2023-03-20T03:42:17;7.10;99.90
51765;DHT22;37835;53.256;6.456;2023-03-20T03:45:05;7.10;99.90
51765;DHT22;37835;53.256;6.456;2023-03-20T03:50:27;7.10;99.90
51765;DHT22;37835;53.256;6.456;2023-03-20T03:52:57;7.20;99.90
51765;DHT22;37835;53.256;6.456;2023-03-20T03:55:31;7.10;99.90
51765;DHT22;37835;53.256;6.456;2023-03-20T03:58:16;7.10;99.90
51765;DHT22;37835;53.256;6.456;2023-03-20T04:00:44;7.20;99.90
51765;DHT22;37835;53.256;6.456;2023-03-20T04:03:12;7.20;99.90
51765;DHT22;37835;53.256;6.456;2023-03-20T04:05:41;7.10;99.90
51765;DHT22;37835;53.256;6.456;2023-03-20T04:08:09;7.20;99.90
51765;DHT22;37835;53.256;6.456;2023-03-20T04:10:34;7.10;99.90
51765;DHT22;37835;53.256;6.456;2023-03-20T04:13:00;7.10;99.90
51765;DHT22;37835;53.256;6.456;2023-03-20T04:15:26;7.00;99.90
51765;DHT22;37835;53.256;6.456;2023-03-20T04:17:52;8.00;99.90
51765;DHT22;37835;53.256;6.456;2023-03-20T04:20:18;7.20;99.90
51765;DHT22;37835;53.256;6.456;2023-03-20T04:22:43;7.30;99.90
51765;DHT22;37835;53.256;6.456;2023-03-20T04:25:17;7.10;99.90
51765;DHT22;37835;53.256;6.456;2023-03-20T04:27:43;9.30;99.90
51765;DHT22;37835;53.256;6.456;2023-03-20T04:30:10;7.10;99.90
51765;DHT22;37835;53.256;6.456;2023-03-20T04:32:35;7.20;99.90
51765;DHT22;37835;53.256;6.456;2023-03-20T04:35:01;7.20;99.90
51765;DHT22;37835;53.256;6.456;2023-03-20T04:37:26;7.20;99.90
51765;DHT22;37835;53.256;6.456;2023-03-20T04:39:52;7.20;99.90
51765;DHT22;37835;53.256;6.456;2023-03-20T04:42:17;7.10;99.90
51765;DHT22;37835;53.256;6.456;2023-03-20T04:44:43;7.10;99.90
51765;DHT22;37835;53.256;6.456;2023-03-20T04:47:09;7.10;99.90
51765;DHT22;37835;53.256;6.456;2023-03-20T04:49:34;7.20;99.90
51765;DHT22;37835;53.256;6.456;2023-03-20T04:52:00;7.20;99.90
51765;DHT22;37835;53.256;6.456;2023-03-20T04:54:25;7.20;99.90
51765;DHT22;37835;53.256;6.456;2023-03-20T04:56:51;7.00;99.90
51765;DHT22;37835;53.256;6.456;2023-03-20T04:59:17;7.10;99.90
51765;DHT22;37835;53.256;6.456;2023-03-20T05:01:42;7.20;99.90
51765;DHT22;37835;53.256;6.456;2023-03-20T05:04:08;7.20;99.90
51765;DHT22;37835;53.256;6.456;2023-03-20T05:06:34;7.10;99.90
51765;DHT22;37835;53.256;6.456;2023-03-20T05:08:59;7.20;99.90
51765;DHT22;37835;53.256;6.456;2023-03-20T05:11:26;7.20;99.90
51765;DHT22;37835;53.256;6.456;2023-03-20T05:13:52;7.10;99.90
51765;DHT22;37835;53.256;6.456;2023-03-20T05:16:18;7.20;99.90
51765;DHT22;37835;53.256;6.456;2023-03-20T05:18:43;7.20;99.90
51765;DHT22;37835;53.256;6.456;2023-03-20T05:21:09;7.20;99.90
51765;DHT22;37835;53.256;6.456;2023-03-20T05:23:34;7.20;99.90
51765;DHT22;37835;53.256;6.456;2023-03-20T05:26:00;7.20;99.90
51765;DHT22;37835;53.256;6.456;2023-03-20T05:28:26;7.20;99.90
51765;DHT22;37835;53.256;6.456;2023-03-20T05:30:52;7.20;99.90
51765;DHT22;37835;53.256;6.456;2023-03-20T05:33:17;7.20;99.90
51765;DHT22;37835;53.256;6.456;2023-03-20T05:35:43;7.20;99.90
51765;DHT22;37835;53.256;6.456;2023-03-20T05:38:09;7.20;99.90
51765;DHT22;37835;53.256;6.456;2023-03-20T05:40:34;7.00;99.90
51765;DHT22;37835;53.256;6.456;2023-03-20T05:43:00;7.20;99.90
51765;DHT22;37835;53.256;6.456;2023-03-20T05:45:26;7.20;99.90
51765;DHT22;37835;53.256;6.456;2023-03-20T05:47:51;7.20;99.90
51765;DHT22;37835;53.256;6.456;2023-03-20T05:50:17;7.20;99.90
51765;DHT22;37835;53.256;6.456;2023-03-20T05:52:48;7.20;99.90
51765;DHT22;37835;53.256;6.456;2023-03-20T05:55:14;7.20;99.90
51765;DHT22;37835;53.256;6.456;2023-03-20T05:57:40;7.20;99.90
51765;DHT22;37835;53.256;6.456;2023-03-20T06:00:07;7.20;99.90
51765;DHT22;37835;53.256;6.456;2023-03-20T06:02:35;7.30;99.90
51765;DHT22;37835;53.256;6.456;2023-03-20T06:05:01;7.20;99.90
51765;DHT22;37835;53.256;6.456;2023-03-20T06:07:27;7.20;99.90
51765;DHT22;37835;53.256;6.456;2023-03-20T06:09:52;7.20;99.90
51765;DHT22;37835;53.256;6.456;2023-03-20T06:12:18;7.20;99.90
51765;DHT22;37835;53.256;6.456;2023-03-20T06:14:43;7.20;99.90
51765;DHT22;37835;53.256;6.456;2023-03-20T06:17:09;7.20;99.90
51765;DHT22;37835;53.256;6.456;2023-03-20T06:19:35;7.20;99.90
51765;DHT22;37835;53.256;6.456;2023-03-20T06:22:01;7.20;99.90
51765;DHT22;37835;53.256;6.456;2023-03-20T06:24:27;7.20;99.90
51765;DHT22;37835;53.256;6.456;2023-03-20T06:26:52;7.20;99.90
51765;DHT22;37835;53.256;6.456;2023-03-20T06:29:18;7.20;99.90
51765;DHT22;37835;53.256;6.456;2023-03-20T06:31:43;7.20;99.90
51765;DHT22;37835;53.256;6.456;2023-03-20T06:34:09;7.20;99.90
51765;DHT22;37835;53.256;6.456;2023-03-20T06:36:35;7.20;99.90
51765;DHT22;37835;53.256;6.456;2023-03-20T06:39:01;7.30;99.90
51765;DHT22;37835;53.256;6.456;2023-03-20T06:41:27;7.20;99.90
51765;DHT22;37835;53.256;6.456;2023-03-20T06:43:53;7.10;99.90
51765;DHT22;37835;53.256;6.456;2023-03-20T06:46:18;7.20;99.90
51765;DHT22;37835;53.256;6.456;2023-03-20T06:48:44;7.20;99.90
51765;DHT22;37835;53.256;6.456;2023-03-20T06:51:10;7.20;99.90
51765;DHT22;37835;53.256;6.456;2023-03-20T06:53:36;7.30;99.90
51765;DHT22;37835;53.256;6.456;2023-03-20T06:56:01;7.30;99.90
51765;DHT22;37835;53.256;6.456;2023-03-20T06:58:27;7.30;99.90
51765;DHT22;37835;53.256;6.456;2023-03-20T07:00:52;7.30;99.90
51765;DHT22;37835;53.256;6.456;2023-03-20T07:03:19;7.30;99.90
51765;DHT22;37835;53.256;6.456;2023-03-20T07:05:45;7.30;99.90
51765;DHT22;37835;53.256;6.456;2023-03-20T07:08:11;7.30;99.90
51765;DHT22;37835;53.256;6.456;2023-03-20T07:10:37;7.40;99.90
51765;DHT22;37835;53.256;6.456;2023-03-20T07:13:03;7.40;99.90
51765;DHT22;37835;53.256;6.456;2023-03-20T07:15:29;7.40;99.90
51765;DHT22;37835;53.256;6.456;2023-03-20T07:17:54;7.40;99.90
51765;DHT22;37835;53.256;6.456;2023-03-20T07:20:20;7.40;99.90
51765;DHT22;37835;53.256;6.456;2023-03-20T07:22:47;7.40;99.90
51765;DHT22;37835;53.256;6.456;2023-03-20T07:25:13;7.50;99.90
51765;DHT22;37835;53.256;6.456;2023-03-20T07:27:39;7.50;99.90
51765;DHT22;37835;53.256;6.456;2023-03-20T07:30:06;7.40;99.90
51765;DHT22;37835;53.256;6.456;2023-03-20T07:32:33;7.60;99.90
51765;DHT22;37835;53.256;6.456;2023-03-20T07:34:59;7.60;99.90
51765;DHT22;37835;53.256;6.456;2023-03-20T07:37:25;7.70;99.90
51765;DHT22;37835;53.256;6.456;2023-03-20T07:39:50;7.30;99.90
51765;DHT22;37835;53.256;6.456;2023-03-20T07:42:16;7.70;99.90
51765;DHT22;37835;53.256;6.456;2023-03-20T07:44:42;7.80;99.90
51765;DHT22;37835;53.256;6.456;2023-03-20T07:47:08;7.80;99.90
51765;DHT22;37835;53.256;6.456;2023-03-20T07:49:34;7.70;99.90
51765;DHT22;37835;53.256;6.456;2023-03-20T07:51:59;8.00;99.90
51765;DHT22;37835;53.256;6.456;2023-03-20T07:54:25;7.80;99.90
51765;DHT22;37835;53.256;6.456;2023-03-20T07:56:51;7.90;99.90
51765;DHT22;37835;53.256;6.456;2023-03-20T07:59:17;7.90;99.90
51765;DHT22;37835;53.256;6.456;2023-03-20T08:01:43;7.90;99.90
51765;DHT22;37835;53.256;6.456;2023-03-20T08:04:09;7.90;99.90
51765;DHT22;37835;53.256;6.456;2023-03-20T08:06:35;7.90;99.90
51765;DHT22;37835;53.256;6.456;2023-03-20T08:09:01;8.00;99.90
51765;DHT22;37835;53.256;6.456;2023-03-20T08:11:27;8.00;99.90
51765;DHT22;37835;53.256;6.456;2023-03-20T08:13:53;8.10;99.90
51765;DHT22;37835;53.256;6.456;2023-03-20T08:16:18;8.10;99.90
51765;DHT22;37835;53.256;6.456;2023-03-20T08:18:44;8.10;99.90
51765;DHT22;37835;53.256;6.456;2023-03-20T08:21:09;8.00;99.90
51765;DHT22;37835;53.256;6.456;2023-03-20T08:23:36;8.10;99.90
51765;DHT22;37835;53.256;6.456;2023-03-20T08:26:01;8.10;99.90
51765;DHT22;37835;53.256;6.456;2023-03-20T08:28:27;8.20;99.90
51765;DHT22;37835;53.256;6.456;2023-03-20T08:30:52;8.10;99.90
51765;DHT22;37835;53.256;6.456;2023-03-20T08:33:18;8.10;99.90
51765;DHT22;37835;53.256;6.456;2023-03-20T08:35:53;8.20;99.90
51765;DHT22;37835;53.256;6.456;2023-03-20T08:38:19;8.20;99.90
51765;DHT22;37835;53.256;6.456;2023-03-20T08:40:44;8.10;99.90
51765;DHT22;37835;53.256;6.456;2023-03-20T08:43:10;8.00;99.90
51765;DHT22;37835;53.256;6.456;2023-03-20T08:45:36;7.80;99.90
51765;DHT22;37835;53.256;6.456;2023-03-20T08:48:01;8.20;99.90
51765;DHT22;37835;53.256;6.456;2023-03-20T08:50:27;8.20;99.90
51765;DHT22;37835;53.256;6.456;2023-03-20T08:52:52;8.30;99.90
51765;DHT22;37835;53.256;6.456;2023-03-20T08:55:18;8.30;99.90
51765;DHT22;37835;53.256;6.456;2023-03-20T08:57:45;8.40;99.90
51765;DHT22;37835;53.256;6.456;2023-03-20T09:00:12;8.40;99.90
51765;DHT22;37835;53.256;6.456;2023-03-20T09:02:39;8.50;99.90
51765;DHT22;37835;53.256;6.456;2023-03-20T09:05:05;8.50;99.90
51765;DHT22;37835;53.256;6.456;2023-03-20T09:07:30;8.50;99.90
51765;DHT22;37835;53.256;6.456;2023-03-20T09:09:56;8.60;99.90
51765;DHT22;37835;53.256;6.456;2023-03-20T09:12:21;8.60;99.90
51765;DHT22;37835;53.256;6.456;2023-03-20T09:14:47;8.70;99.90
51765;DHT22;37835;53.256;6.456;2023-03-20T09:17:12;8.70;99.90
51765;DHT22;37835;53.256;6.456;2023-03-20T09:19:38;8.80;99.90
51765;DHT22;37835;53.256;6.456;2023-03-20T09:22:07;8.80;99.90
51765;DHT22;37835;53.256;6.456;2023-03-20T09:24:32;8.90;99.90
51765;DHT22;37835;53.256;6.456;2023-03-20T09:26:58;8.90;99.90
51765;DHT22;37835;53.256;6.456;2023-03-20T09:29:25;9.00;99.90
51765;DHT22;37835;53.256;6.456;2023-03-20T09:31:52;9.00;99.90
51765;DHT22;37835;53.256;6.456;2023-03-20T09:34:18;9.00;99.90
51765;DHT22;37835;53.256;6.456;2023-03-20T09:36:44;9.10;99.90
51765;DHT22;37835;53.256;6.456;2023-03-20T09:39:09;9.10;99.90
51765;DHT22;37835;53.256;6.456;2023-03-20T09:41:35;9.20;99.90
51765;DHT22;37835;53.256;6.456;2023-03-20T09:46:31;9.20;99.90
51765;DHT22;37835;53.256;6.456;2023-03-20T09:49:16;9.20;99.90
51765;DHT22;37835;53.256;6.456;2023-03-20T09:51:59;9.30;99.90
51765;DHT22;37835;53.256;6.456;2023-03-20T09:54:41;9.40;99.90
51765;DHT22;37835;53.256;6.456;2023-03-20T09:57:23;9.40;99.90
51765;DHT22;37835;53.256;6.456;2023-03-20T10:00:00;9.50;99.90
51765;DHT22;37835;53.256;6.456;2023-03-20T10:02:49;9.50;99.90
51765;DHT22;37835;53.256;6.456;2023-03-20T10:05:22;9.60;99.90
51765;DHT22;37835;53.256;6.456;2023-03-20T10:07:49;9.60;99.90
51765;DHT22;37835;53.256;6.456;2023-03-20T10:10:16;9.70;99.90
51765;DHT22;37835;53.256;6.456;2023-03-20T10:15:37;9.80;99.90
51765;DHT22;37835;53.256;6.456;2023-03-20T10:18:33;9.80;99.90
51765;DHT22;37835;53.256;6.456;2023-03-20T10:21:27;9.80;99.90
51765;DHT22;37835;53.256;6.456;2023-03-20T10:24:04;9.80;99.90
51765;DHT22;37835;53.256;6.456;2023-03-20T10:26:34;9.90;99.90
51765;DHT22;37835;53.256;6.456;2023-03-20T10:29:01;9.80;99.90
51765;DHT22;37835;53.256;6.456;2023-03-20T10:31:48;9.90;99.90
51765;DHT22;37835;53.256;6.456;2023-03-20T10:34:36;9.90;99.90
51765;DHT22;37835;53.256;6.456;2023-03-20T10:37:18;10.00;99.90
51765;DHT22;37835;53.256;6.456;2023-03-20T10:42:46;10.00;99.90
51765;DHT22;37835;53.256;6.456;2023-03-20T10:47:43;10.00;99.90
51765;DHT22;37835;53.256;6.456;2023-03-20T10:50:17;10.00;99.90
51765;DHT22;37835;53.256;6.456;2023-03-20T10:52:45;10.10;99.90
51765;DHT22;37835;53.256;6.456;2023-03-20T10:55:21;10.10;99.90
51765;DHT22;37835;53.256;6.456;2023-03-20T10:58:19;10.10;99.90
51765;DHT22;37835;53.256;6.456;2023-03-20T11:00:46;10.20;99.90
51765;DHT22;37835;53.256;6.456;2023-03-20T11:03:23;10.10;99.90
51765;DHT22;37835;53.256;6.456;2023-03-20T11:05:57;10.10;99.90
51765;DHT22;37835;53.256;6.456;2023-03-20T11:08:25;10.00;99.90
51765;DHT22;37835;53.256;6.456;2023-03-20T11:11:00;10.00;99.90
51765;DHT22;37835;53.256;6.456;2023-03-20T11:13:31;9.90;99.90
51765;DHT22;37835;53.256;6.456;2023-03-20T11:16:21;9.90;99.90
51765;DHT22;37835;53.256;6.456;2023-03-20T11:18:48;9.90;99.90
51765;DHT22;37835;53.256;6.456;2023-03-20T11:21:32;9.90;99.90
51765;DHT22;37835;53.256;6.456;2023-03-20T11:24:00;9.80;99.90
51765;DHT22;37835;53.256;6.456;2023-03-20T11:26:38;9.80;99.90
51765;DHT22;37835;53.256;6.456;2023-03-20T11:29:06;9.70;99.90
51765;DHT22;37835;53.256;6.456;2023-03-20T11:31:37;9.70;99.90
51765;DHT22;37835;53.256;6.456;2023-03-20T11:36:30;9.80;99.90
51765;DHT22;37835;53.256;6.456;2023-03-20T11:39:24;9.80;99.90
51765;DHT22;37835;53.256;6.456;2023-03-20T11:41:53;9.80;99.90
51765;DHT22;37835;53.256;6.456;2023-03-20T11:44:30;9.80;99.90
51765;DHT22;37835;53.256;6.456;2023-03-20T11:47:02;9.80;99.90
51765;DHT22;37835;53.256;6.456;2023-03-20T11:49:33;9.80;99.90
51765;DHT22;37835;53.256;6.456;2023-03-20T11:52:14;9.80;99.90
51765;DHT22;37835;53.256;6.456;2023-03-20T11:54:52;9.70;99.90
51765;DHT22;37835;53.256;6.456;2023-03-20T11:57:34;9.70;99.90
51765;DHT22;37835;53.256;6.456;2023-03-20T12:00:06;9.60;99.90
51765;DHT22;37835;53.256;6.456;2023-03-20T12:02:40;9.60;99.90
51765;DHT22;37835;53.256;6.456;2023-03-20T12:07:45;9.50;99.90
51765;DHT22;37835;53.256;6.456;2023-03-20T12:10:13;9.40;99.90
51765;DHT22;37835;53.256;6.456;2023-03-20T12:12:53;9.40;99.90
51765;DHT22;37835;53.256;6.456;2023-03-20T12:15:32;9.30;99.90
51765;DHT22;37835;53.256;6.456;2023-03-20T12:21:09;9.10;99.90
51765;DHT22;37835;53.256;6.456;2023-03-20T12:23:55;9.20;99.90
51765;DHT22;37835;53.256;6.456;2023-03-20T12:26:31;9.20;99.90
51765;DHT22;37835;53.256;6.456;2023-03-20T12:29:25;9.20;99.90
51765;DHT22;37835;53.256;6.456;2023-03-20T12:32:29;9.20;99.90
51765;DHT22;37835;53.256;6.456;2023-03-20T12:37:31;9.20;99.90
51765;DHT22;37835;53.256;6.456;2023-03-20T12:40:00;9.20;99.90
51765;DHT22;37835;53.256;6.456;2023-03-20T12:42:44;9.10;99.90
51765;DHT22;37835;53.256;6.456;2023-03-20T12:45:21;9.10;99.90
51765;DHT22;37835;53.256;6.456;2023-03-20T12:50:51;9.10;99.90
51765;DHT22;37835;53.256;6.456;2023-03-20T13:06:56;8.80;99.90
51765;DHT22;37835;53.256;6.456;2023-03-20T13:26:11;9.70;99.90
51765;DHT22;37835;53.256;6.456;2023-03-20T13:28:54;8.70;99.90
51765;DHT22;37835;53.256;6.456;2023-03-20T13:31:54;8.70;99.90
51765;DHT22;37835;53.256;6.456;2023-03-20T13:39:57;8.70;99.90
51765;DHT22;37835;53.256;6.456;2023-03-20T13:42:28;8.70;99.90
51765;DHT22;37835;53.256;6.456;2023-03-20T13:44:58;8.70;99.90
51765;DHT22;37835;53.256;6.456;2023-03-20T13:47:27;8.70;99.90
51765;DHT22;37835;53.256;6.456;2023-03-20T13:52:48;8.70;99.90
51765;DHT22;37835;53.256;6.456;2023-03-20T13:55:29;8.60;99.90
51765;DHT22;37835;53.256;6.456;2023-03-20T14:01:01;8.60;99.90
51765;DHT22;37835;53.256;6.456;2023-03-20T14:03:33;8.60;99.90
51765;DHT22;37835;53.256;6.456;2023-03-20T14:06:00;8.60;99.90
51765;DHT22;37835;53.256;6.456;2023-03-20T14:14:02;8.60;99.90
51765;DHT22;37835;53.256;6.456;2023-03-20T14:16:29;8.50;99.90
51765;DHT22;37835;53.256;6.456;2023-03-20T14:19:14;8.60;99.90
51765;DHT22;37835;53.256;6.456;2023-03-20T14:21:45;9.10;99.90
51765;DHT22;37835;53.256;6.456;2023-03-20T14:24:14;8.60;99.90
51765;DHT22;37835;53.256;6.456;2023-03-20T14:26:41;8.50;99.90
51765;DHT22;37835;53.256;6.456;2023-03-20T14:31:36;8.60;99.90
51765;DHT22;37835;53.256;6.456;2023-03-20T14:47:51;8.60;99.90
51765;DHT22;37835;53.256;6.456;2023-03-20T14:50:30;8.60;99.90
51765;DHT22;37835;53.256;6.456;2023-03-20T14:53:07;8.10;99.90
51765;DHT22;37835;53.256;6.456;2023-03-20T15:01:01;8.50;99.90
51765;DHT22;37835;53.256;6.456;2023-03-20T15:03:29;8.50;99.90
51765;DHT22;37835;53.256;6.456;2023-03-20T15:05:58;8.50;99.90
51765;DHT22;37835;53.256;6.456;2023-03-20T15:08:28;8.50;99.90
51765;DHT22;37835;53.256;6.456;2023-03-20T15:11:04;8.50;99.90
51765;DHT22;37835;53.256;6.456;2023-03-20T15:13:34;8.60;99.90
51765;DHT22;37835;53.256;6.456;2023-03-20T15:16:08;8.60;99.90
51765;DHT22;37835;53.256;6.456;2023-03-20T15:18:40;8.50;99.90
51765;DHT22;37835;53.256;6.456;2023-03-20T15:21:26;8.50;99.90
51765;DHT22;37835;53.256;6.456;2023-03-20T15:23:52;8.60;99.90
51765;DHT22;37835;53.256;6.456;2023-03-20T15:26:19;8.50;99.90
51765;DHT22;37835;53.256;6.456;2023-03-20T15:28:46;8.50;99.90
51765;DHT22;37835;53.256;6.456;2023-03-20T15:31:39;8.50;99.90
51765;DHT22;37835;53.256;6.456;2023-03-20T15:34:07;8.30;99.90
51765;DHT22;37835;53.256;6.456;2023-03-20T15:36:35;8.50;99.90
51765;DHT22;37835;53.256;6.456;2023-03-20T15:39:15;8.50;99.90
51765;DHT22;37835;53.256;6.456;2023-03-20T15:42:01;8.50;99.90
51765;DHT22;37835;53.256;6.456;2023-03-20T15:44:36;8.40;99.90
51765;DHT22;37835;53.256;6.456;2023-03-20T15:49:38;8.50;99.90
51765;DHT22;37835;53.256;6.456;2023-03-20T15:52:32;8.50;99.90
51765;DHT22;37835;53.256;6.456;2023-03-20T15:55:06;8.50;99.90
51765;DHT22;37835;53.256;6.456;2023-03-20T15:57:38;8.40;99.90
51765;DHT22;37835;53.256;6.456;2023-03-20T16:00:36;8.50;99.90
51765;DHT22;37835;53.256;6.456;2023-03-20T16:03:06;8.50;99.90
51765;DHT22;37835;53.256;6.456;2023-03-20T16:05:34;8.40;99.90
51765;DHT22;37835;53.256;6.456;2023-03-20T16:08:24;8.20;99.90
51765;DHT22;37835;53.256;6.456;2023-03-20T16:13:24;8.40;99.90
51765;DHT22;37835;53.256;6.456;2023-03-20T16:15:51;8.40;99.90
51765;DHT22;37835;53.256;6.456;2023-03-20T16:18:19;8.50;99.90
51765;DHT22;37835;53.256;6.456;2023-03-20T16:20:53;8.30;99.90
51765;DHT22;37835;53.256;6.456;2023-03-20T16:23:31;8.50;99.90
51765;DHT22;37835;53.256;6.456;2023-03-20T16:25:58;8.50;99.90
51765;DHT22;37835;53.256;6.456;2023-03-20T16:28:27;8.50;99.90
51765;DHT22;37835;53.256;6.456;2023-03-20T16:31:09;8.50;99.90
51765;DHT22;37835;53.256;6.456;2023-03-20T16:33:38;8.50;99.90
51765;DHT22;37835;53.256;6.456;2023-03-20T16:36:04;8.50;99.90
51765;DHT22;37835;53.256;6.456;2023-03-20T16:38:35;8.50;99.90
51765;DHT22;37835;53.256;6.456;2023-03-20T16:41:30;8.50;99.90
51765;DHT22;37835;53.256;6.456;2023-03-20T16:44:13;8.50;99.90
51765;DHT22;37835;53.256;6.456;2023-03-20T16:47:13;8.50;99.90
51765;DHT22;37835;53.256;6.456;2023-03-20T16:50:09;8.50;99.90
51765;DHT22;37835;53.256;6.456;2023-03-20T16:52:38;8.50;99.90
51765;DHT22;37835;53.256;6.456;2023-03-20T16:55:11;8.50;99.90
51765;DHT22;37835;53.256;6.456;2023-03-20T16:57:38;8.50;99.90
51765;DHT22;37835;53.256;6.456;2023-03-20T17:00:07;8.50;99.90
51765;DHT22;37835;53.256;6.456;2023-03-20T17:02:49;8.50;99.90
51765;DHT22;37835;53.256;6.456;2023-03-20T17:05:18;8.50;99.90
51765;DHT22;37835;53.256;6.456;2023-03-20T17:07:49;8.50;99.90
51765;DHT22;37835;53.256;6.456;2023-03-20T17:12:42;8.50;99.90
51765;DHT22;37835;53.256;6.456;2023-03-20T17:15:20;8.50;99.90
51765;DHT22;37835;53.256;6.456;2023-03-20T17:17:46;8.50;99.90
51765;DHT22;37835;53.256;6.456;2023-03-20T17:20:26;8.50;99.90
51765;DHT22;37835;53.256;6.456;2023-03-20T17:22:53;8.50;99.90
51765;DHT22;37835;53.256;6.456;2023-03-20T17:25:19;8.30;99.90
51765;DHT22;37835;53.256;6.456;2023-03-20T17:27:45;8.50;99.90
51765;DHT22;37835;53.256;6.456;2023-03-20T17:30:20;8.50;99.90
51765;DHT22;37835;53.256;6.456;2023-03-20T17:32:46;8.50;99.90
51765;DHT22;37835;53.256;6.456;2023-03-20T17:35:12;8.50;99.90
51765;DHT22;37835;53.256;6.456;2023-03-20T17:37:38;9.20;99.90
51765;DHT22;37835;53.256;6.456;2023-03-20T17:40:04;8.50;99.90
51765;DHT22;37835;53.256;6.456;2023-03-20T17:42:31;8.50;99.90
51765;DHT22;37835;53.256;6.456;2023-03-20T17:45:00;8.30;99.90
51765;DHT22;37835;53.256;6.456;2023-03-20T17:47:28;8.50;99.90
51765;DHT22;37835;53.256;6.456;2023-03-20T17:49:54;8.40;99.90
51765;DHT22;37835;53.256;6.456;2023-03-20T17:52:25;9.40;99.90
51765;DHT22;37835;53.256;6.456;2023-03-20T17:54:51;8.50;99.90
51765;DHT22;37835;53.256;6.456;2023-03-20T17:57:33;8.50;99.90
51765;DHT22;37835;53.256;6.456;2023-03-20T17:59:59;8.50;99.90
51765;DHT22;37835;53.256;6.456;2023-03-20T18:02:25;8.60;99.90
51765;DHT22;37835;53.256;6.456;2023-03-20T18:04:51;10.20;99.90
51765;DHT22;37835;53.256;6.456;2023-03-20T18:07:23;8.50;99.90
51765;DHT22;37835;53.256;6.456;2023-03-20T18:09:50;8.50;99.90
51765;DHT22;37835;53.256;6.456;2023-03-20T18:12:16;8.50;99.90
51765;DHT22;37835;53.256;6.456;2023-03-20T18:14:44;8.50;99.90
51765;DHT22;37835;53.256;6.456;2023-03-20T18:17:14;8.60;99.90
51765;DHT22;37835;53.256;6.456;2023-03-20T18:19:40;8.50;99.90
51765;DHT22;37835;53.256;6.456;2023-03-20T18:22:06;8.90;99.90
51765;DHT22;37835;53.256;6.456;2023-03-20T18:24:32;8.50;99.90
51765;DHT22;37835;53.256;6.456;2023-03-20T18:26:58;8.50;99.90
51765;DHT22;37835;53.256;6.456;2023-03-20T18:29:24;8.50;99.90